createdAt,value
2022-11-16T00:00:40.239Z,10.00
2022-11-16T00:04:42.176Z,9.32
2022-11-16T00:09:07.055Z,8.55
2022-11-16T00:13:09.234Z,7.32
2022-11-16T00:17:10.812Z,6.77
2022-11-16T00:21:12.359Z,9.48
2022-11-16T00:25:13.975Z,13.25
2022-11-16T00:29:17.970Z,7.43
2022-11-16T00:33:19.557Z,6.80
2022-11-16T00:37:21.249Z,8.10
2022-11-16T00:41:23.072Z,9.52
2022-11-16T00:45:24.617Z,6.65
2022-11-16T00:49:26.203Z,6.82
2022-11-16T00:53:27.958Z,5.70
2022-11-16T00:57:29.616Z,7.80
2022-11-16T01:01:31.423Z,5.68
2022-11-16T01:05:33.104Z,8.75
2022-11-16T01:09:34.836Z,6.45
2022-11-16T01:13:36.555Z,11.30
2022-11-16T01:17:40.537Z,6.90
2022-11-16T01:21:42.087Z,12.63
2022-11-16T01:25:43.675Z,6.22
2022-11-16T01:29:45.609Z,9.90
2022-11-16T01:33:47.312Z,4.97
2022-11-16T01:37:55.104Z,9.70
2022-11-16T01:41:57.394Z,9.20
2022-11-16T01:45:59.369Z,8.45
2022-11-16T01:50:08.921Z,5.95
2022-11-16T01:54:13.445Z,5.13
2022-11-16T01:58:27.436Z,6.18
2022-11-16T02:26:45.971Z,5.75
2022-11-16T02:30:51.019Z,4.80
2022-11-16T02:35:11.288Z,7.63
2022-11-16T02:39:18.676Z,8.50
2022-11-16T02:43:29.635Z,10.85
2022-11-16T02:47:34.458Z,8.23
2022-11-16T02:51:40.074Z,8.30
2022-11-16T02:55:41.764Z,9.77
2022-11-16T02:59:48.974Z,7.97
2022-11-16T03:04:09.127Z,10.52
2022-11-16T03:08:36.557Z,12.73
2022-11-16T03:12:41.124Z,16.40
2022-11-16T03:16:48.486Z,16.25
2022-11-16T03:20:57.296Z,15.48
2022-11-16T03:25:01.120Z,17.95
2022-11-16T03:29:29.396Z,19.60
2022-11-16T03:33:47.524Z,19.92
2022-11-16T03:37:55.034Z,22.63
2022-11-16T03:42:00.404Z,20.70
2022-11-16T03:46:02.364Z,19.55
2022-11-16T03:50:04.538Z,19.67
2022-11-16T03:54:06.224Z,16.37
2022-11-16T03:58:09.772Z,14.57
2022-11-16T04:02:13.823Z,17.15
2022-11-16T04:06:34.081Z,13.60
2022-11-16T04:10:54.313Z,12.45
2022-11-16T04:15:25.439Z,14.48
2022-11-16T04:19:45.642Z,12.10
2022-11-16T04:24:07.442Z,14.25
2022-11-16T04:28:16.267Z,8.02
2022-11-16T04:32:42.125Z,8.90
2022-11-16T04:37:02.277Z,7.65
2022-11-16T04:41:05.097Z,7.85
2022-11-16T04:45:26.141Z,7.85
2022-11-16T04:49:28.298Z,11.32
2022-11-16T04:53:33.188Z,10.57
2022-11-16T04:57:42.338Z,12.05
2022-11-16T05:02:03.406Z,13.53
2022-11-16T05:06:05.280Z,12.00
2022-11-16T05:10:08.377Z,15.05
2022-11-16T05:14:10.609Z,14.93
2022-11-16T05:18:14.543Z,15.23
2022-11-16T05:22:16.138Z,16.35
2022-11-16T05:26:17.874Z,18.60
2022-11-16T05:30:20.972Z,18.63
2022-11-16T05:34:23.816Z,17.20
2022-11-16T05:38:25.434Z,20.70
2022-11-16T05:42:30.963Z,18.17
2022-11-16T05:46:33.500Z,15.80
2022-11-16T05:50:42.364Z,15.07
2022-11-16T05:54:54.148Z,16.75
2022-11-16T05:58:56.322Z,16.73
2022-11-16T06:02:58.174Z,17.77
2022-11-16T06:07:04.283Z,18.83
2022-11-16T06:11:10.891Z,16.98
2022-11-16T06:15:14.278Z,17.90
2022-11-16T06:19:15.945Z,14.98
2022-11-16T06:23:17.519Z,19.48
2022-11-16T06:27:21.048Z,17.20
2022-11-16T06:31:22.811Z,13.80
2022-11-16T06:35:24.646Z,14.73
2022-11-16T06:39:26.461Z,14.93
2022-11-16T06:43:28.397Z,15.93
2022-11-16T06:47:30.548Z,16.48
2022-11-16T06:51:33.098Z,14.88
2022-11-16T06:55:34.885Z,16.25
2022-11-16T06:59:38.637Z,12.35
2022-11-16T07:03:40.460Z,14.32
2022-11-16T07:07:43.226Z,15.35
2022-11-16T07:11:45.547Z,23.00
2022-11-16T07:15:49.255Z,18.02
2022-11-16T07:19:51.338Z,19.52
2022-11-16T07:23:59.271Z,17.50
2022-11-16T07:28:01.336Z,22.35
2022-11-16T07:32:18.543Z,21.98
2022-11-16T07:36:49.261Z,19.77
2022-11-16T07:40:52.697Z,23.20
2022-11-16T07:44:56.790Z,20.67
2022-11-16T07:48:58.573Z,21.90
2022-11-16T07:53:35.731Z,19.17
2022-11-16T07:57:37.417Z,24.93
2022-11-16T08:01:41.610Z,23.35
2022-11-16T08:05:47.070Z,17.92
2022-11-16T08:09:50.071Z,21.00
2022-11-16T08:13:52.081Z,15.43
2022-11-16T08:17:58.223Z,17.00
2022-11-16T08:22:03.747Z,16.85
2022-11-16T08:26:13.867Z,14.32
2022-11-16T08:30:15.883Z,12.40
2022-11-16T08:34:19.797Z,13.02
2022-11-16T08:38:24.923Z,14.07
2022-11-16T08:42:26.664Z,13.07
2022-11-16T08:46:28.992Z,14.60
2022-11-16T08:51:09.852Z,16.92
2022-11-16T08:55:01.740Z,12.38
2022-11-16T08:59:03.679Z,12.82
2022-11-16T09:03:05.586Z,12.13
2022-11-16T09:07:07.249Z,10.68
2022-11-16T09:11:15.880Z,13.10
2022-11-16T09:15:19.569Z,18.40
2022-11-16T09:19:21.303Z,15.13
2022-11-16T09:23:25.493Z,16.98
2022-11-16T09:27:27.624Z,15.60
2022-11-16T09:31:34.162Z,16.77
2022-11-16T09:35:35.737Z,10.55
2022-11-16T09:39:37.466Z,9.18
2022-11-16T09:44:07.626Z,8.65
2022-11-16T09:48:13.634Z,9.57
2022-11-16T09:52:34.306Z,9.38
2022-11-16T09:56:40.422Z,7.78
2022-11-16T10:00:49.829Z,5.45
2022-11-16T10:05:14.586Z,8.13
2022-11-16T10:09:16.981Z,7.35
2022-11-16T10:13:33.179Z,6.32
2022-11-16T10:17:49.575Z,5.13
2022-11-16T10:22:28.107Z,5.28
2022-11-16T10:26:48.210Z,5.97
2022-11-16T10:31:14.799Z,7.72
2022-11-16T10:35:30.143Z,10.13
2022-11-16T10:39:34.064Z,7.20
2022-11-16T10:43:36.289Z,7.85
2022-11-16T10:47:50.290Z,7.22
2022-11-16T10:51:53.767Z,5.85
2022-11-16T10:56:20.033Z,5.72
2022-11-16T11:00:44.497Z,7.97
2022-11-16T11:05:02.326Z,9.07
2022-11-16T11:09:29.024Z,5.13
2022-11-16T11:13:35.012Z,5.22
2022-11-16T11:17:47.271Z,5.90
2022-11-16T11:21:49.323Z,7.35
2022-11-16T11:25:53.633Z,3.93
2022-11-16T11:29:58.827Z,9.30
2022-11-16T11:34:17.679Z,8.70
2022-11-16T11:38:19.302Z,10.43
2022-11-16T11:42:23.318Z,9.68
2022-11-16T11:46:56.052Z,7.38
2022-11-16T11:50:56.887Z,5.85
2022-11-16T11:55:00.389Z,5.78
2022-11-16T11:59:04.550Z,5.75
2022-11-16T12:03:24.975Z,7.93
2022-11-16T12:07:37.079Z,6.88
2022-11-16T12:11:53.743Z,4.03
2022-11-16T12:16:02.997Z,5.88
2022-11-16T12:20:29.482Z,5.40
2022-11-16T12:24:42.953Z,13.20
2022-11-16T12:29:02.721Z,9.75
2022-11-16T12:33:16.414Z,9.35
2022-11-16T12:37:39.609Z,4.45
2022-11-16T12:41:53.662Z,4.03
2022-11-16T12:46:06.122Z,11.27
2022-11-16T12:50:32.777Z,6.25
2022-11-16T12:55:19.021Z,4.00
2022-11-16T12:59:47.149Z,5.10
2022-11-16T13:04:00.313Z,4.32
2022-11-16T13:08:12.295Z,4.22
2022-11-16T13:12:17.302Z,7.50
2022-11-16T13:16:20.529Z,4.88
2022-11-16T13:21:06.827Z,5.68
2022-11-16T13:25:27.140Z,4.65
2022-11-16T13:29:37.836Z,4.43
2022-11-16T13:33:51.066Z,3.55
2022-11-16T13:37:53.619Z,4.68
2022-11-16T13:42:13.196Z,9.95
2022-11-16T13:46:40.816Z,7.07
2022-11-16T13:50:40.097Z,4.78
2022-11-16T13:54:46.820Z,6.03
2022-11-16T13:58:55.808Z,6.68
2022-11-16T14:03:15.691Z,6.88
2022-11-16T14:07:29.372Z,9.52
2022-11-16T14:11:34.495Z,4.30
2022-11-16T14:15:38.051Z,6.57
2022-11-16T14:19:47.575Z,5.95
2022-11-16T14:23:49.238Z,7.88
2022-11-16T14:27:55.594Z,3.92
2022-11-16T14:31:59.457Z,6.88
2022-11-16T14:36:03.580Z,5.03
2022-11-16T14:40:16.861Z,9.88
2022-11-16T14:44:27.495Z,8.27
2022-11-16T14:48:29.535Z,5.00
2022-11-16T14:52:43.982Z,6.23
2022-11-16T14:56:56.811Z,4.28
2022-11-16T15:01:00.838Z,9.40
2022-11-16T15:05:03.237Z,5.47
2022-11-16T15:09:05.584Z,7.97
2022-11-16T15:13:07.708Z,7.65
2022-11-16T15:17:16.312Z,4.03
2022-11-16T15:21:22.543Z,6.38
2022-11-16T15:25:35.836Z,4.97
2022-11-16T15:29:37.878Z,6.00
2022-11-16T15:33:43.692Z,5.43
2022-11-16T15:37:45.410Z,8.23
2022-11-16T15:41:47.642Z,3.97
2022-11-16T15:45:55.935Z,4.53
2022-11-16T15:49:57.628Z,5.70
2022-11-16T15:54:24.237Z,6.25
2022-11-16T15:58:29.121Z,6.63
2022-11-16T16:02:32.205Z,7.38
2022-11-16T16:06:45.754Z,8.32
2022-11-16T16:10:57.781Z,3.42
2022-11-16T16:15:22.869Z,4.38
2022-11-16T16:19:38.566Z,15.77
2022-11-16T16:23:48.109Z,3.72
2022-11-16T16:27:49.673Z,3.88
2022-11-16T16:31:51.303Z,3.95
2022-11-16T16:35:52.858Z,5.97
2022-11-16T16:39:54.542Z,9.93
2022-11-16T16:43:56.152Z,4.18
2022-11-16T16:47:57.751Z,5.72
2022-11-16T16:51:59.543Z,11.32
2022-11-16T16:56:01.783Z,11.35
2022-11-16T17:00:04.096Z,11.57
2022-11-16T17:04:06.872Z,5.03
2022-11-16T17:08:08.475Z,5.50
2022-11-16T17:12:11.093Z,7.88
2022-11-16T17:16:12.715Z,4.63
2022-11-16T17:20:14.748Z,11.52
2022-11-16T17:24:16.694Z,11.80
2022-11-16T17:28:18.277Z,12.32
2022-11-16T17:32:19.834Z,10.07
2022-11-16T17:36:21.373Z,8.23
2022-11-16T17:40:22.978Z,10.48
2022-11-16T17:44:24.592Z,10.05
2022-11-16T17:48:26.600Z,5.77
2022-11-16T17:52:29.259Z,6.00
2022-11-16T17:56:30.980Z,6.25
2022-11-16T18:00:32.568Z,4.85
2022-11-16T18:04:34.156Z,5.25
2022-11-16T18:08:37.378Z,5.68
2022-11-16T18:12:39.024Z,4.38
2022-11-16T18:16:44.381Z,5.57
2022-11-16T18:20:50.785Z,7.05
2022-11-16T18:24:52.379Z,9.63
2022-11-16T18:28:54.173Z,10.02
2022-11-16T18:32:55.723Z,8.82
2022-11-16T18:36:57.374Z,5.07
2022-11-16T18:41:19.746Z,7.10
2022-11-16T18:45:21.670Z,7.30
2022-11-16T18:49:23.310Z,9.35
2022-11-16T18:53:25.390Z,9.15
2022-11-16T18:57:27.014Z,5.73
2022-11-16T19:01:29.026Z,6.72
2022-11-16T19:05:30.603Z,12.00
2022-11-16T19:09:32.294Z,7.05
2022-11-16T19:13:34.426Z,10.02
2022-11-16T19:17:48.165Z,3.70
2022-11-16T19:21:58.450Z,3.90
2022-11-16T19:26:02.078Z,4.13
2022-11-16T19:30:04.575Z,4.78
2022-11-16T19:34:08.145Z,4.47
2022-11-16T19:38:09.704Z,6.25
2022-11-16T19:42:11.390Z,5.28
2022-11-16T19:46:20.387Z,3.90
2022-11-16T19:50:23.624Z,3.30
2022-11-16T19:54:25.641Z,3.38
2022-11-16T19:58:27.357Z,8.88
2022-11-16T20:02:29.028Z,4.60
2022-11-16T20:06:36.333Z,6.72
2022-11-16T20:10:38.136Z,6.90
2022-11-16T20:14:39.832Z,8.45
2022-11-16T20:18:42.776Z,4.05
2022-11-16T20:26:48.659Z,2.15
2022-11-16T20:30:50.407Z,4.07
2022-11-16T20:34:52.005Z,6.05
2022-11-16T20:38:54.024Z,1.27
2022-11-16T20:42:59.147Z,6.67
2022-11-16T20:47:00.731Z,3.25
2022-11-16T20:51:02.862Z,3.20
2022-11-16T20:55:04.998Z,5.33
2022-11-16T20:59:06.587Z,3.50
2022-11-16T21:03:08.297Z,3.20
2022-11-16T21:07:10.014Z,3.42
2022-11-16T21:11:13.597Z,1.65
2022-11-16T21:15:15.323Z,5.35
2022-11-16T21:19:17.072Z,5.20
2022-11-16T21:23:18.722Z,3.88
2022-11-16T21:27:20.246Z,3.33
2022-11-16T21:31:25.658Z,7.40
2022-11-16T21:35:27.315Z,4.30
2022-11-16T21:39:30.218Z,4.30
2022-11-16T21:47:35.899Z,7.75
2022-11-16T21:51:37.457Z,8.77
2022-11-16T21:55:39.009Z,4.60
2022-11-16T21:59:40.814Z,4.07
2022-11-16T22:03:42.626Z,3.75
2022-11-16T22:07:44.255Z,4.22
2022-11-16T22:11:45.825Z,5.07
2022-11-16T22:15:47.471Z,2.60
2022-11-16T22:19:49.115Z,4.90
2022-11-16T22:23:50.742Z,4.28
2022-11-16T22:28:19.021Z,5.57
2022-11-16T22:32:15.205Z,8.93
2022-11-16T22:36:16.742Z,9.18
2022-11-16T22:40:18.303Z,3.92
2022-11-16T22:44:23.400Z,3.95
2022-11-16T22:48:31.326Z,2.65
2022-11-16T22:52:32.966Z,6.50
2022-11-16T22:56:34.825Z,5.97
2022-11-16T23:00:41.839Z,4.53
2022-11-16T23:04:43.896Z,5.32
2022-11-16T23:08:45.693Z,2.35
2022-11-16T23:13:06.070Z,3.85
2022-11-16T23:17:08.214Z,2.08
2022-11-16T23:21:28.509Z,4.23
2022-11-16T23:25:48.697Z,3.08
2022-11-16T23:29:50.443Z,4.45
2022-11-16T23:33:52.013Z,3.42
2022-11-16T23:37:57.601Z,9.00
2022-11-16T23:42:18.551Z,2.88
2022-11-16T23:46:20.142Z,9.73
2022-11-16T23:50:21.692Z,8.63
2022-11-16T23:54:23.247Z,4.00
2022-11-16T23:58:24.902Z,4.15
